Aviation Digital Data Service (ADDS)

Output produced by METARs form (2226 UTC 24 March 2019)
found at http://www.aviationweather.gov/metar/data/
 
HRYR 241700Z 2418/2524 20003KT 9999 FEW023CB SCT025 FM 242100 32004KT SCT026
SCT100 
     BECMG 2502/2505 VRB03KT SCT026 SCT100 FM 250800 17008KT BKN025 
     BECMG 2510/2513 18010G20KT -TSRA FEW023CB BKN025 
     BECMG 2515/2519 24008KT FEW023CB SCT025 FM 252100 32004KT SCT026 SCT100